| Date | Time | Temp. (oF) | Dew Point (oF) | Rel. Hum. (%) | Press. (in.) | Wind Dir. | Wind Speed (mph) | Hourly Rainfall (in.) |
|
|---|---|---|---|---|---|---|---|---|---|
| 1 | 12/17 | 00:00 | 27 | 24 | 89 | 30.17 | W | 0 | 0.00 |
| 2 | 12/16 | 23:00 | 29 | 24 | 83 | 30.15 | W | 1 | 0.00 |
| 3 | 12/16 | 22:00 | 32 | 24 | 74 | 30.14 | W | 0 | 0.00 |
| 4 | 12/16 | 21:00 | 33 | 25 | 74 | 30.13 | W | 0 | 0.00 |
| 5 | 12/16 | 20:00 | 36 | 24 | 63 | 30.12 | W | 2 | 0.00 |
| 6 | 12/16 | 19:00 | 36 | 24 | 62 | 30.10 | SSW | 3 | 0.00 |
| 7 | 12/16 | 18:00 | 38 | 24 | 58 | 30.06 | S | 3 | 0.00 |
| 8 | 12/16 | 17:00 | 39 | 23 | 54 | 30.03 | SW | 4 | 0.00 |
| 9 | 12/16 | 16:00 | 40 | 23 | 52 | 29.99 | SSW | 4 | 0.00 |
| 10 | 12/16 | 15:00 | 41 | 24 | 51 | 29.99 | SSW | 13 | 0.00 |
| 11 | 12/16 | 14:00 | 40 | 22 | 50 | 29.98 | SSW | 10 | 0.00 |
| 12 | 12/16 | 13:00 | 39 | 24 | 56 | 30.01 | SSW | 6 | 0.00 |
| 13 | 12/16 | 12:00 | 39 | 24 | 55 | 30.02 | SSE | 6 | 0.00 |
| 14 | 12/16 | 11:00 | 35 | 22 | 60 | 30.05 | SSW | 4 | 0.00 |
| 15 | 12/16 | 10:00 | 31 | 19 | 63 | 30.07 | SSE | 6 | 0.00 |
| 16 | 12/16 | 09:00 | 27 | 18 | 70 | 30.08 | S | 6 | 0.00 |
| 17 | 12/16 | 08:00 | 25 | 18 | 75 | 30.07 | S | 7 | 0.00 |
| 18 | 12/16 | 07:00 | 22 | 17 | 81 | 30.05 | SSE | 7 | 0.00 |
| 19 | 12/16 | 06:00 | 17 | 16 | 96 | 30.03 | SSW | 4 | 0.00 |
| 20 | 12/16 | 05:00 | 14 | 13 | 97 | 30.02 | S | 1 | 0.00 |
| 21 | 12/16 | 04:00 | 14 | 13 | 97 | 30.01 | S | 1 | 0.00 |
| 22 | 12/16 | 03:00 | 15 | 14 | 99 | 30.02 | N | 1 | 0.00 |
| 23 | 12/16 | 02:00 | 15 | 14 | 99 | 29.99 | N | 1 | 0.00 |
| 24 | 12/16 | 01:00 | 14 | 13 | 96 | 29.97 | N | 1 | 0.00 |